sensor_id;sensor_type;location;lat;lon;timestamp;P1;durP1;ratioP1;P2;durP2;ratioP2
10078;SDS011;5078;42.544;22.966;2023-12-14T00:01:38;3.55;;;3.10;;
10078;SDS011;5078;42.544;22.966;2023-12-14T00:04:06;3.65;;;3.05;;
10078;SDS011;5078;42.544;22.966;2023-12-14T00:06:34;5.55;;;3.40;;
10078;SDS011;5078;42.544;22.966;2023-12-14T00:09:00;4.65;;;3.05;;
10078;SDS011;5078;42.544;22.966;2023-12-14T00:11:27;4.22;;;2.78;;
10078;SDS011;5078;42.544;22.966;2023-12-14T00:13:53;2.63;;;2.30;;
10078;SDS011;5078;42.544;22.966;2023-12-14T00:16:20;4.10;;;2.70;;
10078;SDS011;5078;42.544;22.966;2023-12-14T00:18:46;3.65;;;3.03;;
10078;SDS011;5078;42.544;22.966;2023-12-14T00:21:13;3.45;;;3.10;;
10078;SDS011;5078;42.544;22.966;2023-12-14T00:23:41;3.75;;;2.70;;
10078;SDS011;5078;42.544;22.966;2023-12-14T00:26:07;4.03;;;2.70;;
10078;SDS011;5078;42.544;22.966;2023-12-14T00:28:33;3.47;;;2.88;;
10078;SDS011;5078;42.544;22.966;2023-12-14T00:31:00;4.75;;;2.90;;
10078;SDS011;5078;42.544;22.966;2023-12-14T00:33:26;3.85;;;3.20;;
10078;SDS011;5078;42.544;22.966;2023-12-14T00:35:53;4.38;;;3.40;;
10078;SDS011;5078;42.544;22.966;2023-12-14T00:38:19;8.13;;;4.97;;
10078;SDS011;5078;42.544;22.966;2023-12-14T00:40:47;3.42;;;3.00;;
10078;SDS011;5078;42.544;22.966;2023-12-14T00:43:13;3.30;;;2.40;;
10078;SDS011;5078;42.544;22.966;2023-12-14T00:45:40;4.13;;;3.65;;
10078;SDS011;5078;42.544;22.966;2023-12-14T00:48:07;3.45;;;3.05;;
10078;SDS011;5078;42.544;22.966;2023-12-14T00:50:33;4.57;;;3.38;;
10078;SDS011;5078;42.544;22.966;2023-12-14T00:52:59;3.50;;;2.88;;
10078;SDS011;5078;42.544;22.966;2023-12-14T00:55:26;5.95;;;3.20;;
10078;SDS011;5078;42.544;22.966;2023-12-14T00:57:54;5.13;;;2.83;;
10078;SDS011;5078;42.544;22.966;2023-12-14T01:00:20;3.95;;;2.80;;
10078;SDS011;5078;42.544;22.966;2023-12-14T01:02:47;4.20;;;3.05;;
10078;SDS011;5078;42.544;22.966;2023-12-14T01:05:13;6.07;;;3.08;;
10078;SDS011;5078;42.544;22.966;2023-12-14T01:07:39;5.30;;;2.63;;
10078;SDS011;5078;42.544;22.966;2023-12-14T01:10:06;4.53;;;3.13;;
10078;SDS011;5078;42.544;22.966;2023-12-14T01:12:33;2.85;;;2.60;;
10078;SDS011;5078;42.544;22.966;2023-12-14T01:15:01;2.78;;;2.58;;
10078;SDS011;5078;42.544;22.966;2023-12-14T01:17:27;3.35;;;2.80;;
10078;SDS011;5078;42.544;22.966;2023-12-14T01:19:54;3.08;;;2.80;;
10078;SDS011;5078;42.544;22.966;2023-12-14T01:22:20;3.50;;;3.00;;
10078;SDS011;5078;42.544;22.966;2023-12-14T01:24:47;4.70;;;3.33;;
10078;SDS011;5078;42.544;22.966;2023-12-14T01:27:13;4.03;;;2.72;;
10078;SDS011;5078;42.544;22.966;2023-12-14T01:29:40;4.38;;;3.03;;
10078;SDS011;5078;42.544;22.966;2023-12-14T01:32:08;3.45;;;2.90;;
10078;SDS011;5078;42.544;22.966;2023-12-14T01:34:34;4.28;;;3.03;;
10078;SDS011;5078;42.544;22.966;2023-12-14T01:37:00;4.13;;;3.60;;
10078;SDS011;5078;42.544;22.966;2023-12-14T01:39:27;3.97;;;3.10;;
10078;SDS011;5078;42.544;22.966;2023-12-14T01:41:53;4.32;;;2.70;;
10078;SDS011;5078;42.544;22.966;2023-12-14T01:44:20;2.95;;;2.67;;
10078;SDS011;5078;42.544;22.966;2023-12-14T01:46:46;4.28;;;2.60;;
10078;SDS011;5078;42.544;22.966;2023-12-14T01:49:14;4.00;;;2.47;;
10078;SDS011;5078;42.544;22.966;2023-12-14T01:51:40;3.63;;;3.03;;
10078;SDS011;5078;42.544;22.966;2023-12-14T01:54:07;4.03;;;3.20;;
10078;SDS011;5078;42.544;22.966;2023-12-14T01:56:33;4.40;;;3.10;;
10078;SDS011;5078;42.544;22.966;2023-12-14T01:59:00;3.30;;;3.00;;
10078;SDS011;5078;42.544;22.966;2023-12-14T02:01:28;3.00;;;2.38;;
10078;SDS011;5078;42.544;22.966;2023-12-14T02:03:55;3.70;;;2.17;;
10078;SDS011;5078;42.544;22.966;2023-12-14T02:06:23;2.20;;;1.90;;
10078;SDS011;5078;42.544;22.966;2023-12-14T02:08:49;2.97;;;2.53;;
10078;SDS011;5078;42.544;22.966;2023-12-14T02:11:16;2.63;;;2.40;;
10078;SDS011;5078;42.544;22.966;2023-12-14T02:13:42;2.78;;;2.55;;
10078;SDS011;5078;42.544;22.966;2023-12-14T02:16:09;2.67;;;2.13;;
10078;SDS011;5078;42.544;22.966;2023-12-14T02:18:35;3.72;;;2.67;;
10078;SDS011;5078;42.544;22.966;2023-12-14T02:21:02;3.97;;;3.22;;
10078;SDS011;5078;42.544;22.966;2023-12-14T02:23:30;4.47;;;3.00;;
10078;SDS011;5078;42.544;22.966;2023-12-14T02:25:56;4.55;;;2.88;;
10078;SDS011;5078;42.544;22.966;2023-12-14T02:28:22;4.85;;;2.85;;
10078;SDS011;5078;42.544;22.966;2023-12-14T02:30:49;3.30;;;3.03;;
10078;SDS011;5078;42.544;22.966;2023-12-14T02:33:15;3.40;;;3.10;;
10078;SDS011;5078;42.544;22.966;2023-12-14T02:35:42;3.60;;;2.40;;
10078;SDS011;5078;42.544;22.966;2023-12-14T02:38:08;4.38;;;2.70;;
10078;SDS011;5078;42.544;22.966;2023-12-14T02:40:36;3.63;;;2.58;;
10078;SDS011;5078;42.544;22.966;2023-12-14T02:43:03;4.43;;;3.00;;
10078;SDS011;5078;42.544;22.966;2023-12-14T02:45:29;3.58;;;2.80;;
10078;SDS011;5078;42.544;22.966;2023-12-14T02:47:56;4.20;;;3.10;;
10078;SDS011;5078;42.544;22.966;2023-12-14T02:50:22;3.30;;;3.00;;
10078;SDS011;5078;42.544;22.966;2023-12-14T02:52:49;3.70;;;2.80;;
10078;SDS011;5078;42.544;22.966;2023-12-14T02:55:15;4.57;;;2.95;;
10078;SDS011;5078;42.544;22.966;2023-12-14T02:57:43;3.95;;;2.65;;
10078;SDS011;5078;42.544;22.966;2023-12-14T03:00:10;5.65;;;3.13;;
10078;SDS011;5078;42.544;22.966;2023-12-14T03:02:37;3.90;;;2.90;;
10078;SDS011;5078;42.544;22.966;2023-12-14T03:05:03;2.97;;;2.58;;
10078;SDS011;5078;42.544;22.966;2023-12-14T03:07:30;4.18;;;2.60;;
10078;SDS011;5078;42.544;22.966;2023-12-14T03:09:56;3.72;;;2.80;;
10078;SDS011;5078;42.544;22.966;2023-12-14T03:12:23;6.25;;;3.40;;
10078;SDS011;5078;42.544;22.966;2023-12-14T03:14:50;5.93;;;3.60;;
10078;SDS011;5078;42.544;22.966;2023-12-14T03:17:17;2.95;;;2.30;;
10078;SDS011;5078;42.544;22.966;2023-12-14T03:19:43;4.18;;;3.00;;
10078;SDS011;5078;42.544;22.966;2023-12-14T03:22:10;4.15;;;3.05;;
10078;SDS011;5078;42.544;22.966;2023-12-14T03:24:36;4.15;;;3.05;;
10078;SDS011;5078;42.544;22.966;2023-12-14T03:27:03;5.78;;;3.60;;
10078;SDS011;5078;42.544;22.966;2023-12-14T03:29:30;6.55;;;3.10;;
10078;SDS011;5078;42.544;22.966;2023-12-14T03:31:58;6.60;;;2.53;;
10078;SDS011;5078;42.544;22.966;2023-12-14T03:34:24;6.47;;;3.42;;
10078;SDS011;5078;42.544;22.966;2023-12-14T03:36:51;6.53;;;3.90;;
10078;SDS011;5078;42.544;22.966;2023-12-14T03:39:17;2.50;;;2.28;;
10078;SDS011;5078;42.544;22.966;2023-12-14T03:41:44;3.50;;;2.35;;
10078;SDS011;5078;42.544;22.966;2023-12-14T03:44:11;3.08;;;2.35;;
10078;SDS011;5078;42.544;22.966;2023-12-14T03:46:37;2.92;;;2.25;;
10078;SDS011;5078;42.544;22.966;2023-12-14T03:49:05;10.38;;;7.05;;
10078;SDS011;5078;42.544;22.966;2023-12-14T03:51:31;17.60;;;10.35;;
10078;SDS011;5078;42.544;22.966;2023-12-14T03:53:58;7.97;;;6.25;;
10078;SDS011;5078;42.544;22.966;2023-12-14T03:56:24;7.28;;;3.90;;
10078;SDS011;5078;42.544;22.966;2023-12-14T03:58:51;6.35;;;4.45;;
10078;SDS011;5078;42.544;22.966;2023-12-14T04:01:17;6.57;;;4.10;;
10078;SDS011;5078;42.544;22.966;2023-12-14T04:03:44;6.78;;;4.43;;
10078;SDS011;5078;42.544;22.966;2023-12-14T04:06:12;6.15;;;4.30;;
10078;SDS011;5078;42.544;22.966;2023-12-14T04:08:39;4.80;;;2.88;;
10078;SDS011;5078;42.544;22.966;2023-12-14T04:11:05;5.43;;;3.58;;
10078;SDS011;5078;42.544;22.966;2023-12-14T04:13:32;3.28;;;2.80;;
10078;SDS011;5078;42.544;22.966;2023-12-14T04:15:58;7.53;;;5.00;;
10078;SDS011;5078;42.544;22.966;2023-12-14T04:18:25;6.32;;;4.50;;
10078;SDS011;5078;42.544;22.966;2023-12-14T04:20:51;7.05;;;4.90;;
10078;SDS011;5078;42.544;22.966;2023-12-14T04:23:19;5.65;;;4.28;;
10078;SDS011;5078;42.544;22.966;2023-12-14T04:25:45;8.57;;;4.55;;
10078;SDS011;5078;42.544;22.966;2023-12-14T04:28:12;8.30;;;5.57;;
10078;SDS011;5078;42.544;22.966;2023-12-14T04:30:38;11.25;;;6.53;;
10078;SDS011;5078;42.544;22.966;2023-12-14T04:33:05;10.77;;;7.32;;
10078;SDS011;5078;42.544;22.966;2023-12-14T04:35:31;11.88;;;7.07;;
10078;SDS011;5078;42.544;22.966;2023-12-14T04:38:01;11.93;;;7.53;;
10078;SDS011;5078;42.544;22.966;2023-12-14T04:40:29;3.30;;;2.80;;
10078;SDS011;5078;42.544;22.966;2023-12-14T04:42:55;7.15;;;4.95;;
10078;SDS011;5078;42.544;22.966;2023-12-14T04:45:22;12.32;;;7.70;;
10078;SDS011;5078;42.544;22.966;2023-12-14T04:47:48;9.95;;;5.43;;
10078;SDS011;5078;42.544;22.966;2023-12-14T04:50:15;11.20;;;7.97;;
10078;SDS011;5078;42.544;22.966;2023-12-14T04:52:41;15.75;;;10.23;;
10078;SDS011;5078;42.544;22.966;2023-12-14T04:55:08;10.65;;;5.68;;
10078;SDS011;5078;42.544;22.966;2023-12-14T04:57:36;6.30;;;4.13;;
10078;SDS011;5078;42.544;22.966;2023-12-14T05:00:03;4.15;;;3.00;;
10078;SDS011;5078;42.544;22.966;2023-12-14T05:02:31;9.95;;;5.15;;
10078;SDS011;5078;42.544;22.966;2023-12-14T05:04:57;14.13;;;7.20;;
10078;SDS011;5078;42.544;22.966;2023-12-14T05:07:24;6.13;;;3.95;;
10078;SDS011;5078;42.544;22.966;2023-12-14T05:09:51;5.32;;;3.60;;
10078;SDS011;5078;42.544;22.966;2023-12-14T05:12:17;11.48;;;6.53;;
10078;SDS011;5078;42.544;22.966;2023-12-14T05:14:45;10.70;;;6.43;;
10078;SDS011;5078;42.544;22.966;2023-12-14T05:17:12;9.98;;;7.75;;
10078;SDS011;5078;42.544;22.966;2023-12-14T05:19:38;8.05;;;5.65;;
10078;SDS011;5078;42.544;22.966;2023-12-14T05:22:04;8.35;;;5.40;;
10078;SDS011;5078;42.544;22.966;2023-12-14T05:24:31;9.63;;;6.72;;
10078;SDS011;5078;42.544;22.966;2023-12-14T05:26:57;8.02;;;5.68;;
10078;SDS011;5078;42.544;22.966;2023-12-14T05:29:24;9.50;;;7.35;;
10078;SDS011;5078;42.544;22.966;2023-12-14T05:31:52;8.35;;;6.28;;
10078;SDS011;5078;42.544;22.966;2023-12-14T05:34:18;7.90;;;5.78;;
10078;SDS011;5078;42.544;22.966;2023-12-14T05:36:44;12.20;;;7.72;;
10078;SDS011;5078;42.544;22.966;2023-12-14T05:39:11;13.25;;;8.63;;
10078;SDS011;5078;42.544;22.966;2023-12-14T05:41:39;5.93;;;4.05;;
10078;SDS011;5078;42.544;22.966;2023-12-14T05:44:06;3.85;;;2.92;;
10078;SDS011;5078;42.544;22.966;2023-12-14T05:46:32;6.78;;;5.18;;
10078;SDS011;5078;42.544;22.966;2023-12-14T05:49:00;12.85;;;9.30;;
10078;SDS011;5078;42.544;22.966;2023-12-14T05:51:27;10.90;;;7.90;;
10078;SDS011;5078;42.544;22.966;2023-12-14T05:53:53;8.98;;;6.63;;
10078;SDS011;5078;42.544;22.966;2023-12-14T05:56:20;6.60;;;5.07;;
10078;SDS011;5078;42.544;22.966;2023-12-14T05:58:46;5.18;;;3.95;;
10078;SDS011;5078;42.544;22.966;2023-12-14T06:01:14;5.03;;;3.72;;
10078;SDS011;5078;42.544;22.966;2023-12-14T06:03:42;5.47;;;3.97;;
10078;SDS011;5078;42.544;22.966;2023-12-14T06:06:10;6.65;;;5.45;;
10078;SDS011;5078;42.544;22.966;2023-12-14T06:08:37;6.70;;;5.40;;
10078;SDS011;5078;42.544;22.966;2023-12-14T06:11:03;9.68;;;5.78;;
10078;SDS011;5078;42.544;22.966;2023-12-14T06:13:31;8.63;;;5.82;;
10078;SDS011;5078;42.544;22.966;2023-12-14T06:15:57;12.63;;;9.77;;
10078;SDS011;5078;42.544;22.966;2023-12-14T06:18:24;32.42;;;26.58;;
10078;SDS011;5078;42.544;22.966;2023-12-14T06:20:50;22.60;;;14.38;;
10078;SDS011;5078;42.544;22.966;2023-12-14T06:23:18;55.17;;;39.90;;
10078;SDS011;5078;42.544;22.966;2023-12-14T06:25:44;15.43;;;12.55;;
10078;SDS011;5078;42.544;22.966;2023-12-14T06:28:11;57.15;;;42.35;;
10078;SDS011;5078;42.544;22.966;2023-12-14T06:30:38;84.72;;;68.18;;
10078;SDS011;5078;42.544;22.966;2023-12-14T06:33:05;81.13;;;65.30;;
10078;SDS011;5078;42.544;22.966;2023-12-14T06:35:31;113.50;;;82.03;;
10078;SDS011;5078;42.544;22.966;2023-12-14T06:37:58;123.80;;;85.78;;
10078;SDS011;5078;42.544;22.966;2023-12-14T06:40:25;7.15;;;5.03;;
10078;SDS011;5078;42.544;22.966;2023-12-14T06:42:52;8.70;;;5.82;;
10078;SDS011;5078;42.544;22.966;2023-12-14T06:45:18;10.27;;;6.30;;
10078;SDS011;5078;42.544;22.966;2023-12-14T06:47:45;8.13;;;6.25;;
10078;SDS011;5078;42.544;22.966;2023-12-14T06:50:12;12.45;;;8.00;;
10078;SDS011;5078;42.544;22.966;2023-12-14T06:52:39;11.65;;;8.13;;
10078;SDS011;5078;42.544;22.966;2023-12-14T06:55:05;7.28;;;5.65;;
10078;SDS011;5078;42.544;22.966;2023-12-14T06:57:34;6.40;;;4.57;;
10078;SDS011;5078;42.544;22.966;2023-12-14T07:00:00;8.55;;;6.28;;
10078;SDS011;5078;42.544;22.966;2023-12-14T07:02:27;17.95;;;12.35;;
10078;SDS011;5078;42.544;22.966;2023-12-14T07:04:53;24.20;;;15.70;;
10078;SDS011;5078;42.544;22.966;2023-12-14T07:07:20;16.23;;;10.95;;
10078;SDS011;5078;42.544;22.966;2023-12-14T07:09:46;10.85;;;8.43;;
10078;SDS011;5078;42.544;22.966;2023-12-14T07:12:13;12.65;;;8.63;;
10078;SDS011;5078;42.544;22.966;2023-12-14T07:14:41;19.85;;;14.13;;
10078;SDS011;5078;42.544;22.966;2023-12-14T07:17:08;34.17;;;24.05;;
10078;SDS011;5078;42.544;22.966;2023-12-14T07:19:34;32.38;;;21.10;;
10078;SDS011;5078;42.544;22.966;2023-12-14T07:22:00;26.40;;;19.33;;
10078;SDS011;5078;42.544;22.966;2023-12-14T07:24:27;39.97;;;29.13;;
10078;SDS011;5078;42.544;22.966;2023-12-14T07:26:53;8.68;;;7.00;;
10078;SDS011;5078;42.544;22.966;2023-12-14T07:29:20;17.63;;;14.27;;
10078;SDS011;5078;42.544;22.966;2023-12-14T07:31:48;9.13;;;7.45;;
10078;SDS011;5078;42.544;22.966;2023-12-14T07:34:14;13.85;;;9.88;;
10078;SDS011;5078;42.544;22.966;2023-12-14T07:36:41;14.43;;;10.02;;
10078;SDS011;5078;42.544;22.966;2023-12-14T07:39:07;13.65;;;9.43;;
10078;SDS011;5078;42.544;22.966;2023-12-14T07:41:34;12.18;;;8.00;;
10078;SDS011;5078;42.544;22.966;2023-12-14T07:44:01;5.40;;;4.70;;
10078;SDS011;5078;42.544;22.966;2023-12-14T07:46:28;7.05;;;6.35;;
10078;SDS011;5078;42.544;22.966;2023-12-14T07:48:55;13.02;;;9.43;;
10078;SDS011;5078;42.544;22.966;2023-12-14T07:51:22;5.70;;;4.90;;
10078;SDS011;5078;42.544;22.966;2023-12-14T07:53:48;10.00;;;8.15;;
10078;SDS011;5078;42.544;22.966;2023-12-14T07:56:15;9.20;;;6.82;;
10078;SDS011;5078;42.544;22.966;2023-12-14T07:58:41;6.97;;;6.00;;
10078;SDS011;5078;42.544;22.966;2023-12-14T08:01:08;6.93;;;5.15;;
10078;SDS011;5078;42.544;22.966;2023-12-14T08:03:35;6.65;;;5.18;;
10078;SDS011;5078;42.544;22.966;2023-12-14T08:06:02;13.32;;;9.75;;
10078;SDS011;5078;42.544;22.966;2023-12-14T08:08:29;7.07;;;5.97;;
10078;SDS011;5078;42.544;22.966;2023-12-14T08:10:55;10.43;;;7.40;;
10078;SDS011;5078;42.544;22.966;2023-12-14T08:13:22;13.48;;;9.43;;
10078;SDS011;5078;42.544;22.966;2023-12-14T08:15:48;8.25;;;6.35;;
10078;SDS011;5078;42.544;22.966;2023-12-14T08:18:15;8.90;;;7.95;;
10078;SDS011;5078;42.544;22.966;2023-12-14T08:20:41;9.73;;;7.40;;
10078;SDS011;5078;42.544;22.966;2023-12-14T08:23:10;11.55;;;8.63;;
10078;SDS011;5078;42.544;22.966;2023-12-14T08:25:35;7.05;;;6.07;;
10078;SDS011;5078;42.544;22.966;2023-12-14T08:28:02;7.10;;;4.53;;
10078;SDS011;5078;42.544;22.966;2023-12-14T08:30:28;6.57;;;5.22;;
10078;SDS011;5078;42.544;22.966;2023-12-14T08:32:55;4.15;;;3.60;;
10078;SDS011;5078;42.544;22.966;2023-12-14T08:35:22;6.28;;;5.40;;
10078;SDS011;5078;42.544;22.966;2023-12-14T08:37:48;11.65;;;8.77;;
10078;SDS011;5078;42.544;22.966;2023-12-14T08:40:16;10.90;;;8.05;;
10078;SDS011;5078;42.544;22.966;2023-12-14T08:42:42;9.95;;;7.45;;
10078;SDS011;5078;42.544;22.966;2023-12-14T08:45:09;9.18;;;7.75;;
10078;SDS011;5078;42.544;22.966;2023-12-14T08:47:37;8.45;;;7.03;;
10078;SDS011;5078;42.544;22.966;2023-12-14T08:50:04;10.18;;;5.90;;
10078;SDS011;5078;42.544;22.966;2023-12-14T08:52:31;10.18;;;7.55;;
10078;SDS011;5078;42.544;22.966;2023-12-14T08:54:57;5.72;;;4.80;;
10078;SDS011;5078;42.544;22.966;2023-12-14T08:57:26;6.10;;;5.18;;
10078;SDS011;5078;42.544;22.966;2023-12-14T08:59:53;5.82;;;3.35;;
10078;SDS011;5078;42.544;22.966;2023-12-14T09:02:19;5.63;;;3.38;;
10078;SDS011;5078;42.544;22.966;2023-12-14T09:04:45;7.82;;;6.13;;
10078;SDS011;5078;42.544;22.966;2023-12-14T09:07:12;17.60;;;15.85;;
10078;SDS011;5078;42.544;22.966;2023-12-14T09:09:38;15.65;;;13.38;;
10078;SDS011;5078;42.544;22.966;2023-12-14T09:12:05;38.97;;;31.85;;
10078;SDS011;5078;42.544;22.966;2023-12-14T09:14:33;32.50;;;26.55;;
10078;SDS011;5078;42.544;22.966;2023-12-14T09:16:59;32.08;;;25.02;;
10078;SDS011;5078;42.544;22.966;2023-12-14T09:19:26;44.17;;;33.92;;
10078;SDS011;5078;42.544;22.966;2023-12-14T09:21:52;7.65;;;5.68;;
10078;SDS011;5078;42.544;22.966;2023-12-14T09:24:18;5.70;;;4.55;;
10078;SDS011;5078;42.544;22.966;2023-12-14T09:26:45;7.18;;;5.38;;
10078;SDS011;5078;42.544;22.966;2023-12-14T09:29:11;7.38;;;4.55;;
10078;SDS011;5078;42.544;22.966;2023-12-14T09:31:42;7.00;;;4.75;;
10078;SDS011;5078;42.544;22.966;2023-12-14T09:34:08;5.72;;;4.43;;
10078;SDS011;5078;42.544;22.966;2023-12-14T09:36:35;8.60;;;6.75;;
10078;SDS011;5078;42.544;22.966;2023-12-14T09:39:01;9.63;;;6.75;;
10078;SDS011;5078;42.544;22.966;2023-12-14T09:41:29;6.30;;;5.05;;
10078;SDS011;5078;42.544;22.966;2023-12-14T09:43:55;5.80;;;4.45;;
10078;SDS011;5078;42.544;22.966;2023-12-14T09:46:22;6.03;;;5.00;;
10078;SDS011;5078;42.544;22.966;2023-12-14T09:48:51;8.50;;;6.03;;
10078;SDS011;5078;42.544;22.966;2023-12-14T09:51:18;11.52;;;6.47;;
10078;SDS011;5078;42.544;22.966;2023-12-14T09:53:43;10.50;;;8.32;;
10078;SDS011;5078;42.544;22.966;2023-12-14T09:56:10;11.68;;;8.77;;
10078;SDS011;5078;42.544;22.966;2023-12-14T09:58:36;9.32;;;6.72;;
10078;SDS011;5078;42.544;22.966;2023-12-14T10:01:03;11.45;;;8.93;;
10078;SDS011;5078;42.544;22.966;2023-12-14T10:03:46;10.55;;;8.60;;
10078;SDS011;5078;42.544;22.966;2023-12-14T10:06:14;9.75;;;8.43;;
10078;SDS011;5078;42.544;22.966;2023-12-14T10:08:40;9.50;;;7.95;;
10078;SDS011;5078;42.544;22.966;2023-12-14T10:11:14;6.20;;;5.60;;
10078;SDS011;5078;42.544;22.966;2023-12-14T10:13:41;8.25;;;6.55;;
10078;SDS011;5078;42.544;22.966;2023-12-14T10:16:08;11.18;;;7.00;;
10078;SDS011;5078;42.544;22.966;2023-12-14T10:18:37;7.90;;;5.43;;
10078;SDS011;5078;42.544;22.966;2023-12-14T10:21:11;24.00;;;12.63;;
10078;SDS011;5078;42.544;22.966;2023-12-14T10:23:39;17.67;;;12.98;;
10078;SDS011;5078;42.544;22.966;2023-12-14T10:26:05;26.80;;;24.00;;
10078;SDS011;5078;42.544;22.966;2023-12-14T10:28:32;21.83;;;16.67;;
10078;SDS011;5078;42.544;22.966;2023-12-14T10:30:58;83.53;;;61.72;;
10078;SDS011;5078;42.544;22.966;2023-12-14T10:33:25;172.02;;;132.07;;
10078;SDS011;5078;42.544;22.966;2023-12-14T10:35:51;44.40;;;29.83;;
10078;SDS011;5078;42.544;22.966;2023-12-14T10:38:18;29.83;;;17.13;;
10078;SDS011;5078;42.544;22.966;2023-12-14T10:40:47;26.05;;;14.77;;
10078;SDS011;5078;42.544;22.966;2023-12-14T10:43:13;22.85;;;14.48;;
10078;SDS011;5078;42.544;22.966;2023-12-14T10:45:41;21.95;;;15.50;;
10078;SDS011;5078;42.544;22.966;2023-12-14T10:48:09;12.75;;;9.60;;
10078;SDS011;5078;42.544;22.966;2023-12-14T10:50:38;17.67;;;12.65;;
10078;SDS011;5078;42.544;22.966;2023-12-14T10:53:05;29.10;;;16.67;;
10078;SDS011;5078;42.544;22.966;2023-12-14T10:55:33;29.70;;;9.40;;
10078;SDS011;5078;42.544;22.966;2023-12-14T10:58:02;32.33;;;20.25;;
10078;SDS011;5078;42.544;22.966;2023-12-14T11:00:29;11.95;;;6.93;;
10078;SDS011;5078;42.544;22.966;2023-12-14T11:02:58;6.72;;;5.22;;
10078;SDS011;5078;42.544;22.966;2023-12-14T11:05:26;7.65;;;6.07;;
10078;SDS011;5078;42.544;22.966;2023-12-14T11:07:55;27.33;;;13.38;;
10078;SDS011;5078;42.544;22.966;2023-12-14T11:10:23;35.03;;;15.70;;
10078;SDS011;5078;42.544;22.966;2023-12-14T11:12:50;15.38;;;10.02;;
10078;SDS011;5078;42.544;22.966;2023-12-14T11:15:18;12.05;;;6.70;;
10078;SDS011;5078;42.544;22.966;2023-12-14T11:20:26;44.90;;;28.55;;
10078;SDS011;5078;42.544;22.966;2023-12-14T11:22:54;14.70;;;10.23;;
10078;SDS011;5078;42.544;22.966;2023-12-14T11:25:23;9.80;;;7.43;;
10078;SDS011;5078;42.544;22.966;2023-12-14T11:27:49;9.02;;;7.35;;
10078;SDS011;5078;42.544;22.966;2023-12-14T11:30:16;5.80;;;4.82;;
10078;SDS011;5078;42.544;22.966;2023-12-14T11:32:44;5.72;;;3.97;;
10078;SDS011;5078;42.544;22.966;2023-12-14T11:35:11;6.07;;;4.63;;
10078;SDS011;5078;42.544;22.966;2023-12-14T11:37:37;9.57;;;5.00;;
10078;SDS011;5078;42.544;22.966;2023-12-14T11:40:04;8.25;;;4.68;;
10078;SDS011;5078;42.544;22.966;2023-12-14T11:42:33;7.35;;;5.55;;
10078;SDS011;5078;42.544;22.966;2023-12-14T11:44:59;4.40;;;4.00;;
10078;SDS011;5078;42.544;22.966;2023-12-14T11:47:26;6.63;;;5.10;;
10078;SDS011;5078;42.544;22.966;2023-12-14T11:49:53;4.90;;;4.15;;
10078;SDS011;5078;42.544;22.966;2023-12-14T11:52:20;3.67;;;3.25;;
10078;SDS011;5078;42.544;22.966;2023-12-14T11:54:47;4.78;;;4.00;;
10078;SDS011;5078;42.544;22.966;2023-12-14T11:57:14;5.57;;;4.53;;
10078;SDS011;5078;42.544;22.966;2023-12-14T11:59:42;8.65;;;4.55;;
10078;SDS011;5078;42.544;22.966;2023-12-14T12:02:11;7.60;;;4.30;;
10078;SDS011;5078;42.544;22.966;2023-12-14T12:04:37;5.35;;;4.30;;
10078;SDS011;5078;42.544;22.966;2023-12-14T12:07:05;4.63;;;4.07;;
10078;SDS011;5078;42.544;22.966;2023-12-14T12:09:37;7.03;;;4.85;;
10078;SDS011;5078;42.544;22.966;2023-12-14T12:12:07;4.97;;;3.53;;
10078;SDS011;5078;42.544;22.966;2023-12-14T12:14:34;4.65;;;3.90;;
10078;SDS011;5078;42.544;22.966;2023-12-14T12:17:01;4.35;;;3.65;;
10078;SDS011;5078;42.544;22.966;2023-12-14T12:19:29;5.03;;;4.53;;
10078;SDS011;5078;42.544;22.966;2023-12-14T12:21:56;3.40;;;3.10;;
10078;SDS011;5078;42.544;22.966;2023-12-14T12:24:23;3.42;;;3.13;;
10078;SDS011;5078;42.544;22.966;2023-12-14T12:26:50;3.35;;;3.05;;
10078;SDS011;5078;42.544;22.966;2023-12-14T12:29:16;6.28;;;3.72;;
10078;SDS011;5078;42.544;22.966;2023-12-14T12:31:43;3.35;;;2.78;;
10078;SDS011;5078;42.544;22.966;2023-12-14T12:34:10;3.30;;;2.17;;
10078;SDS011;5078;42.544;22.966;2023-12-14T12:36:37;2.67;;;2.15;;
10078;SDS011;5078;42.544;22.966;2023-12-14T12:39:03;5.53;;;2.40;;
10078;SDS011;5078;42.544;22.966;2023-12-14T12:41:32;6.07;;;2.58;;
10078;SDS011;5078;42.544;22.966;2023-12-14T12:43:59;4.57;;;2.08;;
10078;SDS011;5078;42.544;22.966;2023-12-14T12:46:30;2.35;;;2.00;;
10078;SDS011;5078;42.544;22.966;2023-12-14T12:48:57;3.42;;;1.55;;
10078;SDS011;5078;42.544;22.966;2023-12-14T12:51:23;2.15;;;1.70;;
10078;SDS011;5078;42.544;22.966;2023-12-14T12:53:50;2.42;;;1.75;;
10078;SDS011;5078;42.544;22.966;2023-12-14T12:56:17;2.05;;;1.67;;
10078;SDS011;5078;42.544;22.966;2023-12-14T12:58:45;5.90;;;2.20;;
10078;SDS011;5078;42.544;22.966;2023-12-14T13:01:11;2.65;;;2.00;;
10078;SDS011;5078;42.544;22.966;2023-12-14T13:03:38;4.45;;;2.60;;
10078;SDS011;5078;42.544;22.966;2023-12-14T13:06:04;64.60;;;37.03;;
10078;SDS011;5078;42.544;22.966;2023-12-14T13:08:31;5.78;;;4.60;;
10078;SDS011;5078;42.544;22.966;2023-12-14T13:10:57;6.85;;;6.25;;
10078;SDS011;5078;42.544;22.966;2023-12-14T13:13:25;7.90;;;7.20;;
10078;SDS011;5078;42.544;22.966;2023-12-14T13:15:53;10.82;;;8.48;;
10078;SDS011;5078;42.544;22.966;2023-12-14T13:18:19;12.65;;;10.73;;
10078;SDS011;5078;42.544;22.966;2023-12-14T13:20:46;6.38;;;5.65;;
10078;SDS011;5078;42.544;22.966;2023-12-14T13:23:12;6.10;;;4.43;;
10078;SDS011;5078;42.544;22.966;2023-12-14T13:25:39;6.20;;;5.45;;
10078;SDS011;5078;42.544;22.966;2023-12-14T13:28:05;7.28;;;6.55;;
10078;SDS011;5078;42.544;22.966;2023-12-14T13:30:32;8.10;;;6.82;;
10078;SDS011;5078;42.544;22.966;2023-12-14T13:32:59;11.60;;;10.40;;
10078;SDS011;5078;42.544;22.966;2023-12-14T13:35:26;4.97;;;4.47;;
10078;SDS011;5078;42.544;22.966;2023-12-14T13:37:53;10.93;;;9.82;;
10078;SDS011;5078;42.544;22.966;2023-12-14T13:40:20;12.00;;;10.80;;
10078;SDS011;5078;42.544;22.966;2023-12-14T13:42:46;8.65;;;7.80;;
10078;SDS011;5078;42.544;22.966;2023-12-14T13:45:13;6.13;;;5.38;;
10078;SDS011;5078;42.544;22.966;2023-12-14T13:47:40;9.65;;;8.65;;
10078;SDS011;5078;42.544;22.966;2023-12-14T13:50:08;5.03;;;3.95;;
10078;SDS011;5078;42.544;22.966;2023-12-14T13:52:34;6.18;;;5.57;;
10078;SDS011;5078;42.544;22.966;2023-12-14T13:55:01;7.13;;;5.63;;
10078;SDS011;5078;42.544;22.966;2023-12-14T13:57:27;12.85;;;11.23;;
10078;SDS011;5078;42.544;22.966;2023-12-14T13:59:54;8.45;;;7.35;;
10078;SDS011;5078;42.544;22.966;2023-12-14T14:02:20;8.27;;;7.32;;
10078;SDS011;5078;42.544;22.966;2023-12-14T14:04:48;6.88;;;5.90;;
10078;SDS011;5078;42.544;22.966;2023-12-14T14:07:16;13.18;;;11.68;;
10078;SDS011;5078;42.544;22.966;2023-12-14T14:09:43;6.70;;;4.60;;
10078;SDS011;5078;42.544;22.966;2023-12-14T14:12:09;6.13;;;5.30;;
10078;SDS011;5078;42.544;22.966;2023-12-14T14:14:36;5.90;;;4.53;;
10078;SDS011;5078;42.544;22.966;2023-12-14T14:17:02;5.82;;;3.88;;
10078;SDS011;5078;42.544;22.966;2023-12-14T14:19:31;5.03;;;3.42;;
10078;SDS011;5078;42.544;22.966;2023-12-14T14:21:57;4.43;;;4.03;;
10078;SDS011;5078;42.544;22.966;2023-12-14T14:24:25;8.55;;;7.13;;
10078;SDS011;5078;42.544;22.966;2023-12-14T14:26:52;3.47;;;3.05;;
10078;SDS011;5078;42.544;22.966;2023-12-14T14:29:18;3.83;;;2.95;;
10078;SDS011;5078;42.544;22.966;2023-12-14T14:31:44;5.53;;;4.38;;
10078;SDS011;5078;42.544;22.966;2023-12-14T14:34:11;6.22;;;5.72;;
10078;SDS011;5078;42.544;22.966;2023-12-14T14:36:37;3.28;;;2.80;;
10078;SDS011;5078;42.544;22.966;2023-12-14T14:39:04;2.88;;;2.58;;
10078;SDS011;5078;42.544;22.966;2023-12-14T14:41:32;5.70;;;5.15;;
10078;SDS011;5078;42.544;22.966;2023-12-14T14:43:59;6.15;;;5.47;;